Dyersburg, TN

11:50 PM CDT on July 09, 2014 (GMT -0500)
RAWS DYERSBURG TN US (MDAFT1) Elev 208 ft | 35.99 °N, 89.41 °W | Change Station

Current weather conditions updated 43 minutes ago

Clear
Clear
69 °F
Feels Like 69 °F
N
0
Wind Variable Wind from North
Gusts 5.0 mph

Tomorrow is forecast to be nearly the same temperature as today.

Today
High -- | Low -- °F
--% Chance of Precip.
Yesterday
High -- | Low -- °F
Precip. -- in
5:48 AM 8:16 PM
Waxing Gibbous, 93% visible
Pressure 30.04 in
Visibility 10.0 miles
Clouds Clear
Dew Point 67 °F
Humidity 94%
Rainfall 0.00 in
Snow Depth Not available.
UV 0 out of 12
Pollen 1.10 out of 12
Air Quality Not available.
Flu Activity No Activity
METAR KDYR 100435Z 00000KT 10SM CLR 21/15 A3004 RMK AO1

More Conditions Fewer Conditions

Pressure 30.04 in
Visibility 10.0 miles
Clouds Clear
Dew Point 67 °F
Humidity 94%
Rainfall 0.00 in
Snow Depth Not available.
UV 0 out of 12
Pollen 1.10 out of 12
Air Quality Not available.
Flu Activity No Activity
METAR KDYR 100435Z 00000KT 10SM CLR 21/15 A3004 RMK AO1

More Conditions Fewer Conditions

10-Day Weather Forecast

Almanac

Astronomy

Jul. 09, 2014 Rise Set
Actual Time 5:48 AM CDT 8:16 PM CDT
Civil Twilight 5:18 AM CDT 8:46 PM CDT
Nautical Twilight 4:41 AM CDT 9:23 PM CDT
Astronomical Twilight 4:01 AM CDT 10:03 PM CDT
Moon 5:30 PM CDT (7/9) 3:04 AM CDT (7/9)
Length of Visible Light 15h 27m
Length of Day
14h 28m
Tomorrow will be 0m 55s shorter.
Waxing Gibbous, 93% of the Moon is Illuminated
Jul 10
Waxing Gibbous
Jul 12
Full
Jul 18
Last Quarter
Jul 26
New
Aug 3
First Quarter

Yesterday's Extremes

State Highs State Lows

Community

WunderPhotos

Upload Photos

1,732,072 photos uploaded!

Nearby

Snow Depth

Station Depth Elevation
No new snow has been reported.

Earthquake Activity

City Distance Mag. Time & Date
Malden, Missouri 50 miles 2.8 8:41 AM CDT
2014-07-04
Minimum magnitude displayed is 2.5.

Coastal Water Temperatures

Place Temperature
No Stations Reporting

Nearby Weather Stations

Station Location Temp. Dew Point Humidity Wind Precip. Elev Updated Type
RAWS DYERSBURG TN, Dyersburg, TN 69 °F 67 °F 94% North  at  0 mph 0.00 in / hr 208 ft 11:07 PM CDT MADIS
DW1566, Humboldt, TN 69.8 °F 60 °F 72% NNE  at  0.0 mph 0.00 in / hr 410 ft 11:50 PM CDT Rapid Fire

Show More Stations Show Fewer Stations